sensor_id;sensor_type;location;lat;lon;timestamp;temperature;humidity
11840;DHT22;5979;50.800;4.904;2022-10-30T00:00:17;15.30;99.90
11840;DHT22;5979;50.800;4.904;2022-10-30T00:02:44;15.20;99.90
11840;DHT22;5979;50.800;4.904;2022-10-30T00:05:10;15.10;99.90
11840;DHT22;5979;50.800;4.904;2022-10-30T00:07:36;15.10;99.90
11840;DHT22;5979;50.800;4.904;2022-10-30T00:10:02;15.10;99.90
11840;DHT22;5979;50.800;4.904;2022-10-30T00:12:27;15.00;99.90
11840;DHT22;5979;50.800;4.904;2022-10-30T00:14:53;15.00;99.90
11840;DHT22;5979;50.800;4.904;2022-10-30T00:17:18;15.00;99.90
11840;DHT22;5979;50.800;4.904;2022-10-30T00:19:44;15.00;99.90
11840;DHT22;5979;50.800;4.904;2022-10-30T00:22:10;15.00;99.90
11840;DHT22;5979;50.800;4.904;2022-10-30T00:24:35;15.00;99.90
11840;DHT22;5979;50.800;4.904;2022-10-30T00:27:01;14.90;99.90
11840;DHT22;5979;50.800;4.904;2022-10-30T00:29:26;14.90;99.90
11840;DHT22;5979;50.800;4.904;2022-10-30T00:31:52;14.90;99.90
11840;DHT22;5979;50.800;4.904;2022-10-30T00:34:18;14.90;99.90
11840;DHT22;5979;50.800;4.904;2022-10-30T00:36:44;14.90;99.90
11840;DHT22;5979;50.800;4.904;2022-10-30T00:39:09;14.90;99.90
11840;DHT22;5979;50.800;4.904;2022-10-30T00:41:36;14.80;99.90
11840;DHT22;5979;50.800;4.904;2022-10-30T00:47:27;14.70;99.90
11840;DHT22;5979;50.800;4.904;2022-10-30T00:52:22;14.60;99.90
11840;DHT22;5979;50.800;4.904;2022-10-30T00:54:49;14.60;99.90
11840;DHT22;5979;50.800;4.904;2022-10-30T00:57:15;14.60;99.90
11840;DHT22;5979;50.800;4.904;2022-10-30T00:59:41;14.50;99.90
11840;DHT22;5979;50.800;4.904;2022-10-30T01:02:07;14.50;99.90
11840;DHT22;5979;50.800;4.904;2022-10-30T01:04:35;14.50;99.90
11840;DHT22;5979;50.800;4.904;2022-10-30T01:07:08;14.50;99.90
11840;DHT22;5979;50.800;4.904;2022-10-30T01:09:36;14.50;99.90
11840;DHT22;5979;50.800;4.904;2022-10-30T01:12:02;14.40;99.90
11840;DHT22;5979;50.800;4.904;2022-10-30T01:14:28;14.40;99.90
11840;DHT22;5979;50.800;4.904;2022-10-30T01:20:45;14.20;99.90
11840;DHT22;5979;50.800;4.904;2022-10-30T01:28:19;14.10;99.90
11840;DHT22;5979;50.800;4.904;2022-10-30T01:31:12;14.10;99.90
11840;DHT22;5979;50.800;4.904;2022-10-30T01:34:06;14.00;99.90
11840;DHT22;5979;50.800;4.904;2022-10-30T01:36:56;13.90;99.90
11840;DHT22;5979;50.800;4.904;2022-10-30T01:39:27;13.90;99.90
11840;DHT22;5979;50.800;4.904;2022-10-30T01:41:54;13.80;99.90
11840;DHT22;5979;50.800;4.904;2022-10-30T01:44:32;13.80;99.90
11840;DHT22;5979;50.800;4.904;2022-10-30T01:47:12;13.70;99.90
11840;DHT22;5979;50.800;4.904;2022-10-30T01:49:50;13.70;99.90
11840;DHT22;5979;50.800;4.904;2022-10-30T01:52:29;13.60;99.90
11840;DHT22;5979;50.800;4.904;2022-10-30T02:00:32;13.50;99.90
11840;DHT22;5979;50.800;4.904;2022-10-30T02:02:58;13.50;99.90
11840;DHT22;5979;50.800;4.904;2022-10-30T02:05:40;13.50;99.90
11840;DHT22;5979;50.800;4.904;2022-10-30T02:08:06;13.50;99.90
11840;DHT22;5979;50.800;4.904;2022-10-30T02:10:36;13.50;99.90
11840;DHT22;5979;50.800;4.904;2022-10-30T02:13:03;13.50;99.90
11840;DHT22;5979;50.800;4.904;2022-10-30T02:15:29;13.50;99.90
11840;DHT22;5979;50.800;4.904;2022-10-30T02:17:55;13.60;99.90
11840;DHT22;5979;50.800;4.904;2022-10-30T02:20:21;13.60;99.90
11840;DHT22;5979;50.800;4.904;2022-10-30T02:22:46;13.50;99.90
11840;DHT22;5979;50.800;4.904;2022-10-30T02:25:13;13.50;99.90
11840;DHT22;5979;50.800;4.904;2022-10-30T02:27:39;13.50;99.90
11840;DHT22;5979;50.800;4.904;2022-10-30T02:30:05;13.60;99.90
11840;DHT22;5979;50.800;4.904;2022-10-30T02:32:31;13.60;99.90
11840;DHT22;5979;50.800;4.904;2022-10-30T02:34:56;13.60;99.90
11840;DHT22;5979;50.800;4.904;2022-10-30T02:37:22;13.60;99.90
11840;DHT22;5979;50.800;4.904;2022-10-30T02:39:49;13.70;99.90
11840;DHT22;5979;50.800;4.904;2022-10-30T02:42:14;13.60;99.90
11840;DHT22;5979;50.800;4.904;2022-10-30T02:44:40;13.60;99.90
11840;DHT22;5979;50.800;4.904;2022-10-30T02:47:06;13.60;99.90
11840;DHT22;5979;50.800;4.904;2022-10-30T02:49:31;13.60;99.90
11840;DHT22;5979;50.800;4.904;2022-10-30T02:51:57;13.60;99.90
11840;DHT22;5979;50.800;4.904;2022-10-30T02:54:22;13.60;99.90
11840;DHT22;5979;50.800;4.904;2022-10-30T02:56:48;13.60;99.90
11840;DHT22;5979;50.800;4.904;2022-10-30T02:59:14;13.60;99.90
11840;DHT22;5979;50.800;4.904;2022-10-30T03:01:39;13.60;99.90
11840;DHT22;5979;50.800;4.904;2022-10-30T03:04:05;13.60;99.90
11840;DHT22;5979;50.800;4.904;2022-10-30T03:06:30;13.60;99.90
11840;DHT22;5979;50.800;4.904;2022-10-30T03:08:56;13.60;99.90
11840;DHT22;5979;50.800;4.904;2022-10-30T03:11:22;13.60;99.90
11840;DHT22;5979;50.800;4.904;2022-10-30T03:13:48;13.60;99.90
11840;DHT22;5979;50.800;4.904;2022-10-30T03:16:19;13.60;99.90
11840;DHT22;5979;50.800;4.904;2022-10-30T03:18:46;13.60;99.90
11840;DHT22;5979;50.800;4.904;2022-10-30T03:21:15;13.60;99.90
11840;DHT22;5979;50.800;4.904;2022-10-30T03:23:41;13.40;99.90
11840;DHT22;5979;50.800;4.904;2022-10-30T03:26:07;13.40;99.90
11840;DHT22;5979;50.800;4.904;2022-10-30T03:28:33;13.50;99.90
11840;DHT22;5979;50.800;4.904;2022-10-30T03:31:04;13.50;99.90
11840;DHT22;5979;50.800;4.904;2022-10-30T03:33:31;13.50;99.90
11840;DHT22;5979;50.800;4.904;2022-10-30T03:35:57;13.50;99.90
11840;DHT22;5979;50.800;4.904;2022-10-30T03:38:23;13.40;99.90
11840;DHT22;5979;50.800;4.904;2022-10-30T03:40:49;13.40;99.90
11840;DHT22;5979;50.800;4.904;2022-10-30T03:43:15;13.40;99.90
11840;DHT22;5979;50.800;4.904;2022-10-30T03:45:45;13.40;99.90
11840;DHT22;5979;50.800;4.904;2022-10-30T03:48:11;13.40;99.90
11840;DHT22;5979;50.800;4.904;2022-10-30T03:50:37;13.40;99.90
11840;DHT22;5979;50.800;4.904;2022-10-30T03:53:03;13.40;99.90
11840;DHT22;5979;50.800;4.904;2022-10-30T03:55:28;13.40;99.90
11840;DHT22;5979;50.800;4.904;2022-10-30T03:57:54;13.40;99.90
11840;DHT22;5979;50.800;4.904;2022-10-30T04:00:20;13.40;99.90
11840;DHT22;5979;50.800;4.904;2022-10-30T04:02:46;13.40;99.90
11840;DHT22;5979;50.800;4.904;2022-10-30T04:05:18;13.40;99.90
11840;DHT22;5979;50.800;4.904;2022-10-30T04:07:44;13.40;99.90
11840;DHT22;5979;50.800;4.904;2022-10-30T04:10:11;13.40;99.90
11840;DHT22;5979;50.800;4.904;2022-10-30T04:12:37;13.40;99.90
11840;DHT22;5979;50.800;4.904;2022-10-30T04:15:03;13.30;99.90
11840;DHT22;5979;50.800;4.904;2022-10-30T04:17:29;13.30;99.90
11840;DHT22;5979;50.800;4.904;2022-10-30T04:19:54;13.30;99.90
11840;DHT22;5979;50.800;4.904;2022-10-30T04:22:20;13.30;99.90
11840;DHT22;5979;50.800;4.904;2022-10-30T04:24:46;13.30;99.90
11840;DHT22;5979;50.800;4.904;2022-10-30T04:27:13;13.30;99.90
11840;DHT22;5979;50.800;4.904;2022-10-30T04:29:39;13.30;99.90
11840;DHT22;5979;50.800;4.904;2022-10-30T04:32:07;13.30;99.90
11840;DHT22;5979;50.800;4.904;2022-10-30T04:34:32;13.30;99.90
11840;DHT22;5979;50.800;4.904;2022-10-30T04:36:58;13.30;99.90
11840;DHT22;5979;50.800;4.904;2022-10-30T04:39:24;13.20;99.90
11840;DHT22;5979;50.800;4.904;2022-10-30T04:41:49;13.20;99.90
11840;DHT22;5979;50.800;4.904;2022-10-30T04:44:15;13.10;99.90
11840;DHT22;5979;50.800;4.904;2022-10-30T04:46:40;13.10;99.90
11840;DHT22;5979;50.800;4.904;2022-10-30T04:49:06;13.10;99.90
11840;DHT22;5979;50.800;4.904;2022-10-30T04:51:32;13.10;99.90
11840;DHT22;5979;50.800;4.904;2022-10-30T04:53:57;13.10;99.90
11840;DHT22;5979;50.800;4.904;2022-10-30T04:56:23;13.10;99.90
11840;DHT22;5979;50.800;4.904;2022-10-30T04:58:49;13.10;99.90
11840;DHT22;5979;50.800;4.904;2022-10-30T05:01:14;13.00;99.90
11840;DHT22;5979;50.800;4.904;2022-10-30T05:03:40;13.00;99.90
11840;DHT22;5979;50.800;4.904;2022-10-30T05:06:12;13.00;99.90
11840;DHT22;5979;50.800;4.904;2022-10-30T05:08:39;13.00;99.90
11840;DHT22;5979;50.800;4.904;2022-10-30T05:11:04;12.90;99.90
11840;DHT22;5979;50.800;4.904;2022-10-30T05:13:30;12.90;99.90
11840;DHT22;5979;50.800;4.904;2022-10-30T05:15:56;12.90;99.90
11840;DHT22;5979;50.800;4.904;2022-10-30T05:18:21;12.80;99.90
11840;DHT22;5979;50.800;4.904;2022-10-30T05:20:47;12.80;99.90
11840;DHT22;5979;50.800;4.904;2022-10-30T05:23:13;12.80;99.90
11840;DHT22;5979;50.800;4.904;2022-10-30T05:25:38;12.80;99.90
11840;DHT22;5979;50.800;4.904;2022-10-30T05:28:05;12.80;99.90
11840;DHT22;5979;50.800;4.904;2022-10-30T05:30:32;12.80;99.90
11840;DHT22;5979;50.800;4.904;2022-10-30T05:33:03;12.80;99.90
11840;DHT22;5979;50.800;4.904;2022-10-30T05:35:30;12.90;99.90
11840;DHT22;5979;50.800;4.904;2022-10-30T05:38:00;12.90;99.90
11840;DHT22;5979;50.800;4.904;2022-10-30T05:40:26;12.90;99.90
11840;DHT22;5979;50.800;4.904;2022-10-30T05:42:52;12.90;99.90
11840;DHT22;5979;50.800;4.904;2022-10-30T05:45:18;12.80;99.90
11840;DHT22;5979;50.800;4.904;2022-10-30T05:47:49;12.90;99.90
11840;DHT22;5979;50.800;4.904;2022-10-30T05:50:18;12.80;99.90
11840;DHT22;5979;50.800;4.904;2022-10-30T05:52:43;12.80;99.90
11840;DHT22;5979;50.800;4.904;2022-10-30T05:55:09;12.80;99.90
11840;DHT22;5979;50.800;4.904;2022-10-30T05:57:34;12.70;99.90
11840;DHT22;5979;50.800;4.904;2022-10-30T06:00:00;12.70;99.90
11840;DHT22;5979;50.800;4.904;2022-10-30T06:02:26;12.70;99.90
11840;DHT22;5979;50.800;4.904;2022-10-30T06:04:51;12.60;99.90
11840;DHT22;5979;50.800;4.904;2022-10-30T06:07:17;12.60;99.90
11840;DHT22;5979;50.800;4.904;2022-10-30T06:09:43;12.50;99.90
11840;DHT22;5979;50.800;4.904;2022-10-30T06:12:08;12.50;99.90
11840;DHT22;5979;50.800;4.904;2022-10-30T06:14:34;12.50;99.90
11840;DHT22;5979;50.800;4.904;2022-10-30T06:16:59;12.50;99.90
11840;DHT22;5979;50.800;4.904;2022-10-30T06:19:25;12.40;99.90
11840;DHT22;5979;50.800;4.904;2022-10-30T06:21:50;12.40;99.90
11840;DHT22;5979;50.800;4.904;2022-10-30T06:24:16;12.40;99.90
11840;DHT22;5979;50.800;4.904;2022-10-30T06:26:42;12.30;99.90
11840;DHT22;5979;50.800;4.904;2022-10-30T06:29:07;12.30;99.90
11840;DHT22;5979;50.800;4.904;2022-10-30T06:31:33;12.20;99.90
11840;DHT22;5979;50.800;4.904;2022-10-30T06:33:59;12.20;99.90
11840;DHT22;5979;50.800;4.904;2022-10-30T06:36:24;12.20;99.90
11840;DHT22;5979;50.800;4.904;2022-10-30T06:38:50;12.20;99.90
11840;DHT22;5979;50.800;4.904;2022-10-30T06:41:16;12.20;99.90
11840;DHT22;5979;50.800;4.904;2022-10-30T06:43:41;12.20;99.90
11840;DHT22;5979;50.800;4.904;2022-10-30T06:46:07;12.30;99.90
11840;DHT22;5979;50.800;4.904;2022-10-30T06:48:33;12.30;99.90
11840;DHT22;5979;50.800;4.904;2022-10-30T06:50:59;12.30;99.90
11840;DHT22;5979;50.800;4.904;2022-10-30T06:53:27;12.30;99.90
11840;DHT22;5979;50.800;4.904;2022-10-30T06:56:00;12.30;99.90
11840;DHT22;5979;50.800;4.904;2022-10-30T06:58:26;12.40;99.90
11840;DHT22;5979;50.800;4.904;2022-10-30T07:00:53;12.50;99.90
11840;DHT22;5979;50.800;4.904;2022-10-30T07:03:19;12.50;99.90
11840;DHT22;5979;50.800;4.904;2022-10-30T07:05:45;12.60;99.90
11840;DHT22;5979;50.800;4.904;2022-10-30T07:08:11;12.60;99.90
11840;DHT22;5979;50.800;4.904;2022-10-30T07:10:36;12.70;99.90
11840;DHT22;5979;50.800;4.904;2022-10-30T07:13:02;12.70;99.90
11840;DHT22;5979;50.800;4.904;2022-10-30T07:15:28;12.80;99.90
11840;DHT22;5979;50.800;4.904;2022-10-30T07:17:58;12.90;99.90
11840;DHT22;5979;50.800;4.904;2022-10-30T07:20:26;12.90;99.90
11840;DHT22;5979;50.800;4.904;2022-10-30T07:22:52;13.00;99.90
11840;DHT22;5979;50.800;4.904;2022-10-30T07:25:17;13.00;99.90
11840;DHT22;5979;50.800;4.904;2022-10-30T07:27:48;13.00;99.90
11840;DHT22;5979;50.800;4.904;2022-10-30T07:30:16;13.10;99.90
11840;DHT22;5979;50.800;4.904;2022-10-30T07:32:43;13.10;99.90
11840;DHT22;5979;50.800;4.904;2022-10-30T07:35:10;13.10;99.90
11840;DHT22;5979;50.800;4.904;2022-10-30T07:37:37;13.20;99.90
11840;DHT22;5979;50.800;4.904;2022-10-30T07:40:03;13.20;99.90
11840;DHT22;5979;50.800;4.904;2022-10-30T07:42:29;13.30;99.90
11840;DHT22;5979;50.800;4.904;2022-10-30T07:44:54;13.50;99.90
11840;DHT22;5979;50.800;4.904;2022-10-30T07:47:20;13.60;99.90
11840;DHT22;5979;50.800;4.904;2022-10-30T07:49:45;13.80;99.90
11840;DHT22;5979;50.800;4.904;2022-10-30T07:52:11;14.00;99.90
11840;DHT22;5979;50.800;4.904;2022-10-30T07:54:37;14.10;99.90
11840;DHT22;5979;50.800;4.904;2022-10-30T07:57:02;14.20;99.90
11840;DHT22;5979;50.800;4.904;2022-10-30T07:59:28;14.30;99.90
11840;DHT22;5979;50.800;4.904;2022-10-30T08:01:53;14.30;99.90
11840;DHT22;5979;50.800;4.904;2022-10-30T08:04:19;14.40;99.90
11840;DHT22;5979;50.800;4.904;2022-10-30T08:06:45;14.50;99.90
11840;DHT22;5979;50.800;4.904;2022-10-30T08:09:10;14.70;99.90
11840;DHT22;5979;50.800;4.904;2022-10-30T08:11:36;14.90;99.90
11840;DHT22;5979;50.800;4.904;2022-10-30T08:14:02;15.10;99.90
11840;DHT22;5979;50.800;4.904;2022-10-30T08:16:27;15.30;99.90
11840;DHT22;5979;50.800;4.904;2022-10-30T08:18:53;15.50;99.90
11840;DHT22;5979;50.800;4.904;2022-10-30T08:21:19;15.70;99.90
11840;DHT22;5979;50.800;4.904;2022-10-30T08:23:44;15.80;99.90
11840;DHT22;5979;50.800;4.904;2022-10-30T08:26:10;16.00;99.90
11840;DHT22;5979;50.800;4.904;2022-10-30T08:28:36;16.10;99.90
11840;DHT22;5979;50.800;4.904;2022-10-30T08:31:02;16.20;99.90
11840;DHT22;5979;50.800;4.904;2022-10-30T08:33:28;16.30;99.90
11840;DHT22;5979;50.800;4.904;2022-10-30T08:35:55;16.40;99.90
11840;DHT22;5979;50.800;4.904;2022-10-30T08:38:22;16.60;99.90
11840;DHT22;5979;50.800;4.904;2022-10-30T08:40:48;16.70;99.90
11840;DHT22;5979;50.800;4.904;2022-10-30T08:43:14;16.80;99.90
11840;DHT22;5979;50.800;4.904;2022-10-30T08:45:40;16.90;99.90
11840;DHT22;5979;50.800;4.904;2022-10-30T08:48:08;16.90;99.90
11840;DHT22;5979;50.800;4.904;2022-10-30T08:50:34;17.00;99.90
11840;DHT22;5979;50.800;4.904;2022-10-30T08:53:09;17.10;99.90
11840;DHT22;5979;50.800;4.904;2022-10-30T08:55:35;17.20;99.90
11840;DHT22;5979;50.800;4.904;2022-10-30T08:58:01;17.20;99.90
11840;DHT22;5979;50.800;4.904;2022-10-30T09:00:27;17.30;99.90
11840;DHT22;5979;50.800;4.904;2022-10-30T09:02:53;17.40;99.90
11840;DHT22;5979;50.800;4.904;2022-10-30T09:05:18;17.50;99.90
11840;DHT22;5979;50.800;4.904;2022-10-30T09:07:45;17.50;99.90
11840;DHT22;5979;50.800;4.904;2022-10-30T09:10:11;17.60;99.90
11840;DHT22;5979;50.800;4.904;2022-10-30T09:12:36;17.60;99.90
11840;DHT22;5979;50.800;4.904;2022-10-30T09:15:03;17.60;99.90
11840;DHT22;5979;50.800;4.904;2022-10-30T09:17:28;17.60;99.90
11840;DHT22;5979;50.800;4.904;2022-10-30T09:19:54;17.60;99.90
11840;DHT22;5979;50.800;4.904;2022-10-30T09:22:20;17.60;99.90
11840;DHT22;5979;50.800;4.904;2022-10-30T09:24:45;17.60;99.90
11840;DHT22;5979;50.800;4.904;2022-10-30T09:27:11;17.50;99.90
11840;DHT22;5979;50.800;4.904;2022-10-30T09:29:36;17.50;99.90
11840;DHT22;5979;50.800;4.904;2022-10-30T09:32:03;17.60;99.90
11840;DHT22;5979;50.800;4.904;2022-10-30T09:34:33;17.60;99.90
11840;DHT22;5979;50.800;4.904;2022-10-30T09:36:58;17.60;99.90
11840;DHT22;5979;50.800;4.904;2022-10-30T09:39:24;17.60;99.90
11840;DHT22;5979;50.800;4.904;2022-10-30T09:44:32;17.70;99.90
11840;DHT22;5979;50.800;4.904;2022-10-30T09:52:23;18.10;99.90
11840;DHT22;5979;50.800;4.904;2022-10-30T09:57:48;18.50;99.90
11840;DHT22;5979;50.800;4.904;2022-10-30T10:00:20;18.60;99.90
11840;DHT22;5979;50.800;4.904;2022-10-30T10:02:57;18.70;99.90
11840;DHT22;5979;50.800;4.904;2022-10-30T10:05:43;18.80;99.90
11840;DHT22;5979;50.800;4.904;2022-10-30T10:08:16;18.90;99.90
11840;DHT22;5979;50.800;4.904;2022-10-30T10:10:52;18.90;99.90
11840;DHT22;5979;50.800;4.904;2022-10-30T10:13:28;19.00;99.90
11840;DHT22;5979;50.800;4.904;2022-10-30T10:16:11;19.00;99.90
11840;DHT22;5979;50.800;4.904;2022-10-30T10:18:45;19.00;99.90
11840;DHT22;5979;50.800;4.904;2022-10-30T10:21:24;19.00;99.90
11840;DHT22;5979;50.800;4.904;2022-10-30T10:24:01;19.00;99.90
11840;DHT22;5979;50.800;4.904;2022-10-30T10:34:44;19.20;99.90
11840;DHT22;5979;50.800;4.904;2022-10-30T10:40:13;19.20;99.90
11840;DHT22;5979;50.800;4.904;2022-10-30T10:47:59;19.40;99.90
11840;DHT22;5979;50.800;4.904;2022-10-30T10:50:36;19.50;99.90
11840;DHT22;5979;50.800;4.904;2022-10-30T10:53:10;19.60;99.90
11840;DHT22;5979;50.800;4.904;2022-10-30T10:55:49;19.60;99.90
11840;DHT22;5979;50.800;4.904;2022-10-30T11:00:51;19.90;99.90
11840;DHT22;5979;50.800;4.904;2022-10-30T11:03:24;20.00;99.90
11840;DHT22;5979;50.800;4.904;2022-10-30T11:06:17;20.10;99.90
11840;DHT22;5979;50.800;4.904;2022-10-30T11:08:44;20.20;99.90
11840;DHT22;5979;50.800;4.904;2022-10-30T11:11:09;20.20;99.90
11840;DHT22;5979;50.800;4.904;2022-10-30T11:13:38;20.20;99.90
11840;DHT22;5979;50.800;4.904;2022-10-30T11:18:45;20.20;99.90
11840;DHT22;5979;50.800;4.904;2022-10-30T11:21:17;20.20;99.90
11840;DHT22;5979;50.800;4.904;2022-10-30T11:23:48;20.20;99.90
11840;DHT22;5979;50.800;4.904;2022-10-30T11:29:00;20.20;99.90
11840;DHT22;5979;50.800;4.904;2022-10-30T11:31:28;20.30;99.90
11840;DHT22;5979;50.800;4.904;2022-10-30T11:36:44;20.40;99.90
11840;DHT22;5979;50.800;4.904;2022-10-30T11:39:16;20.50;99.90
11840;DHT22;5979;50.800;4.904;2022-10-30T11:41:44;20.60;99.90
11840;DHT22;5979;50.800;4.904;2022-10-30T11:44:12;20.70;99.90
11840;DHT22;5979;50.800;4.904;2022-10-30T11:46:38;20.80;99.90
11840;DHT22;5979;50.800;4.904;2022-10-30T11:49:03;20.90;99.90
11840;DHT22;5979;50.800;4.904;2022-10-30T11:51:37;21.00;99.90
11840;DHT22;5979;50.800;4.904;2022-10-30T11:54:04;21.00;99.90
11840;DHT22;5979;50.800;4.904;2022-10-30T11:56:33;21.00;99.90
11840;DHT22;5979;50.800;4.904;2022-10-30T11:59:02;21.10;99.90
11840;DHT22;5979;50.800;4.904;2022-10-30T12:01:31;21.10;99.90
11840;DHT22;5979;50.800;4.904;2022-10-30T12:04:14;21.20;99.90
11840;DHT22;5979;50.800;4.904;2022-10-30T12:06:40;21.30;99.90
11840;DHT22;5979;50.800;4.904;2022-10-30T12:11:35;21.40;99.90
11840;DHT22;5979;50.800;4.904;2022-10-30T12:14:01;21.50;99.90
11840;DHT22;5979;50.800;4.904;2022-10-30T12:16:28;21.50;99.90
11840;DHT22;5979;50.800;4.904;2022-10-30T12:19:06;21.50;99.90
11840;DHT22;5979;50.800;4.904;2022-10-30T12:21:46;21.60;99.90
11840;DHT22;5979;50.800;4.904;2022-10-30T12:24:36;21.60;99.90
11840;DHT22;5979;50.800;4.904;2022-10-30T12:27:03;21.60;99.90
11840;DHT22;5979;50.800;4.904;2022-10-30T12:30:06;21.50;99.90
11840;DHT22;5979;50.800;4.904;2022-10-30T12:35:37;21.40;99.90
11840;DHT22;5979;50.800;4.904;2022-10-30T12:38:16;21.30;99.90
11840;DHT22;5979;50.800;4.904;2022-10-30T12:43:25;21.30;99.90
11840;DHT22;5979;50.800;4.904;2022-10-30T12:45:56;21.20;99.90
11840;DHT22;5979;50.800;4.904;2022-10-30T12:48:36;21.20;99.90
11840;DHT22;5979;50.800;4.904;2022-10-30T12:51:28;21.30;99.90
11840;DHT22;5979;50.800;4.904;2022-10-30T12:56:38;21.30;99.90
11840;DHT22;5979;50.800;4.904;2022-10-30T12:59:26;21.30;99.90
11840;DHT22;5979;50.800;4.904;2022-10-30T13:05:06;21.20;99.90
11840;DHT22;5979;50.800;4.904;2022-10-30T13:07:49;21.20;99.90
11840;DHT22;5979;50.800;4.904;2022-10-30T13:10:33;21.30;99.90
11840;DHT22;5979;50.800;4.904;2022-10-30T13:13:18;21.20;99.90
11840;DHT22;5979;50.800;4.904;2022-10-30T13:15:49;21.30;99.90
11840;DHT22;5979;50.800;4.904;2022-10-30T13:18:19;21.30;99.90
11840;DHT22;5979;50.800;4.904;2022-10-30T13:21:00;21.30;99.90
11840;DHT22;5979;50.800;4.904;2022-10-30T13:26:15;21.30;99.90
11840;DHT22;5979;50.800;4.904;2022-10-30T13:28:54;21.20;99.90
11840;DHT22;5979;50.800;4.904;2022-10-30T13:32:25;21.20;99.90
11840;DHT22;5979;50.800;4.904;2022-10-30T13:42:57;21.40;99.90
11840;DHT22;5979;50.800;4.904;2022-10-30T13:48:49;21.30;99.90
11840;DHT22;5979;50.800;4.904;2022-10-30T13:53:25;21.30;99.90
11840;DHT22;5979;50.800;4.904;2022-10-30T13:55:51;21.30;99.90
11840;DHT22;5979;50.800;4.904;2022-10-30T14:01:16;21.10;99.90
11840;DHT22;5979;50.800;4.904;2022-10-30T14:06:41;21.00;99.90
11840;DHT22;5979;50.800;4.904;2022-10-30T14:09:32;20.80;99.90
11840;DHT22;5979;50.800;4.904;2022-10-30T14:15:04;20.70;99.90
11840;DHT22;5979;50.800;4.904;2022-10-30T14:17:30;20.60;99.90
11840;DHT22;5979;50.800;4.904;2022-10-30T14:22:31;20.50;99.90
11840;DHT22;5979;50.800;4.904;2022-10-30T14:24:58;20.50;99.90
11840;DHT22;5979;50.800;4.904;2022-10-30T14:27:31;20.50;99.90
11840;DHT22;5979;50.800;4.904;2022-10-30T14:29:58;20.50;99.90
11840;DHT22;5979;50.800;4.904;2022-10-30T14:37:17;20.40;99.90
11840;DHT22;5979;50.800;4.904;2022-10-30T14:39:46;20.40;99.90
11840;DHT22;5979;50.800;4.904;2022-10-30T14:55:30;20.50;99.90
11840;DHT22;5979;50.800;4.904;2022-10-30T15:05:55;20.50;99.90
11840;DHT22;5979;50.800;4.904;2022-10-30T15:08:57;20.40;99.90
11840;DHT22;5979;50.800;4.904;2022-10-30T15:11:55;20.40;99.90
11840;DHT22;5979;50.800;4.904;2022-10-30T15:16:56;20.20;99.90
11840;DHT22;5979;50.800;4.904;2022-10-30T15:19:23;20.10;99.90
11840;DHT22;5979;50.800;4.904;2022-10-30T15:21:51;19.90;99.90
11840;DHT22;5979;50.800;4.904;2022-10-30T15:24:20;19.90;99.90
11840;DHT22;5979;50.800;4.904;2022-10-30T15:26:52;19.70;99.90
11840;DHT22;5979;50.800;4.904;2022-10-30T15:29:23;19.70;99.90
11840;DHT22;5979;50.800;4.904;2022-10-30T15:32:14;19.60;99.90
11840;DHT22;5979;50.800;4.904;2022-10-30T15:34:55;19.50;99.90
11840;DHT22;5979;50.800;4.904;2022-10-30T15:37:22;19.40;99.90
11840;DHT22;5979;50.800;4.904;2022-10-30T15:39:48;19.30;99.90
11840;DHT22;5979;50.800;4.904;2022-10-30T15:42:14;19.30;99.90
11840;DHT22;5979;50.800;4.904;2022-10-30T15:44:42;19.20;99.90
11840;DHT22;5979;50.800;4.904;2022-10-30T15:47:14;19.20;99.90
11840;DHT22;5979;50.800;4.904;2022-10-30T15:49:47;19.20;99.90
11840;DHT22;5979;50.800;4.904;2022-10-30T15:52:22;19.10;99.90
11840;DHT22;5979;50.800;4.904;2022-10-30T15:54:55;19.10;99.90
11840;DHT22;5979;50.800;4.904;2022-10-30T15:57:32;19.00;99.90
11840;DHT22;5979;50.800;4.904;2022-10-30T16:00:03;19.00;99.90
11840;DHT22;5979;50.800;4.904;2022-10-30T16:02:30;18.90;99.90
11840;DHT22;5979;50.800;4.904;2022-10-30T16:04:56;18.90;99.90
11840;DHT22;5979;50.800;4.904;2022-10-30T16:07:24;18.80;99.90
11840;DHT22;5979;50.800;4.904;2022-10-30T16:09:58;18.80;99.90
11840;DHT22;5979;50.800;4.904;2022-10-30T16:12:27;18.80;99.90
11840;DHT22;5979;50.800;4.904;2022-10-30T16:14:54;18.70;99.90
11840;DHT22;5979;50.800;4.904;2022-10-30T16:17:20;18.70;99.90
11840;DHT22;5979;50.800;4.904;2022-10-30T16:19:49;18.60;99.90
11840;DHT22;5979;50.800;4.904;2022-10-30T16:22:25;18.60;99.90
11840;DHT22;5979;50.800;4.904;2022-10-30T16:24:52;18.60;99.90
11840;DHT22;5979;50.800;4.904;2022-10-30T16:27:20;18.50;99.90
11840;DHT22;5979;50.800;4.904;2022-10-30T16:29:49;18.40;99.90
11840;DHT22;5979;50.800;4.904;2022-10-30T16:32:17;18.40;99.90
11840;DHT22;5979;50.800;4.904;2022-10-30T16:34:44;18.40;99.90
11840;DHT22;5979;50.800;4.904;2022-10-30T16:37:18;18.30;99.90
11840;DHT22;5979;50.800;4.904;2022-10-30T16:39:49;18.20;99.90
11840;DHT22;5979;50.800;4.904;2022-10-30T16:42:24;18.20;99.90
11840;DHT22;5979;50.800;4.904;2022-10-30T16:44:50;18.10;99.90
11840;DHT22;5979;50.800;4.904;2022-10-30T16:47:23;18.00;99.90
11840;DHT22;5979;50.800;4.904;2022-10-30T16:49:56;18.00;99.90
11840;DHT22;5979;50.800;4.904;2022-10-30T16:52:30;18.00;99.90
11840;DHT22;5979;50.800;4.904;2022-10-30T16:55:04;17.90;99.90
11840;DHT22;5979;50.800;4.904;2022-10-30T16:57:40;17.80;99.90
11840;DHT22;5979;50.800;4.904;2022-10-30T17:00:18;17.80;99.90
11840;DHT22;5979;50.800;4.904;2022-10-30T17:02:46;17.70;99.90
11840;DHT22;5979;50.800;4.904;2022-10-30T17:05:23;17.60;99.90
11840;DHT22;5979;50.800;4.904;2022-10-30T17:11:02;17.50;99.90
11840;DHT22;5979;50.800;4.904;2022-10-30T17:13:39;17.40;99.90
11840;DHT22;5979;50.800;4.904;2022-10-30T17:18:57;17.30;99.90
11840;DHT22;5979;50.800;4.904;2022-10-30T17:21:28;17.20;99.90
11840;DHT22;5979;50.800;4.904;2022-10-30T17:23:58;17.10;99.90
11840;DHT22;5979;50.800;4.904;2022-10-30T17:26:26;17.10;99.90
11840;DHT22;5979;50.800;4.904;2022-10-30T17:28:52;17.10;99.90
11840;DHT22;5979;50.800;4.904;2022-10-30T17:36:33;17.00;99.90
11840;DHT22;5979;50.800;4.904;2022-10-30T17:38:59;17.00;99.90
11840;DHT22;5979;50.800;4.904;2022-10-30T17:41:24;16.90;99.90
11840;DHT22;5979;50.800;4.904;2022-10-30T17:43:52;16.90;99.90
11840;DHT22;5979;50.800;4.904;2022-10-30T17:46:18;16.90;99.90
11840;DHT22;5979;50.800;4.904;2022-10-30T17:48:44;16.90;99.90
11840;DHT22;5979;50.800;4.904;2022-10-30T17:51:14;16.80;99.90
11840;DHT22;5979;50.800;4.904;2022-10-30T17:53:40;16.90;99.90
11840;DHT22;5979;50.800;4.904;2022-10-30T17:56:12;16.80;99.90
11840;DHT22;5979;50.800;4.904;2022-10-30T17:58:38;16.80;99.90
11840;DHT22;5979;50.800;4.904;2022-10-30T18:01:04;16.80;99.90
11840;DHT22;5979;50.800;4.904;2022-10-30T18:03:30;16.80;99.90
11840;DHT22;5979;50.800;4.904;2022-10-30T18:05:56;16.80;99.90
11840;DHT22;5979;50.800;4.904;2022-10-30T18:08:24;16.80;99.90
11840;DHT22;5979;50.800;4.904;2022-10-30T18:10:49;16.80;99.90
11840;DHT22;5979;50.800;4.904;2022-10-30T18:13:15;16.80;99.90
11840;DHT22;5979;50.800;4.904;2022-10-30T18:15:50;16.70;99.90